Time;durP1;ratioP1;P1;durP2;ratioP2;P2;SDS_P1;SDS_P2;PMS_P1;PMS_P2;Temp;Humidity;BMP_temperature;BMP_pressure;BME280_temperature;BME280_humidity;BME280_pressure;Samples;Min_cycle;Max_cycle;Signal;HPM_P1;HPM_P2
2022/07/05 00:02:00;;;;;;;;;1.50;1.00;;;;;18.53;49.63;101976.84;6305224;22;45221;-85
2022/07/05 00:04:26;;;;;;;;;3.25;1.00;;;;;18.68;49.06;101996.41;6305042;22;45281;-85
2022/07/05 00:09:35;;;;;;;;;2.00;2.00;;;;;18.62;49.90;101997.53;6281897;22;45400;-85
2022/07/05 00:12:01;;;;;;;;;1.75;1.00;;;;;18.57;50.50;101996.88;6278145;22;45424;-85
2022/07/05 00:14:26;;;;;;;;;2.25;1.50;;;;;18.50;49.21;102003.34;6277727;22;45241;-85
2022/07/05 00:16:52;;;;;;;;;1.75;1.00;;;;;18.45;50.03;101992.13;6304927;22;46364;-85
2022/07/05 00:19:17;;;;;;;;;1.75;1.00;;;;;18.47;49.88;101993.78;6276802;22;53809;-86
2022/07/05 00:21:42;;;;;;;;;2.25;1.50;;;;;18.33;51.28;101989.09;6277648;22;45263;-85
2022/07/05 00:24:08;;;;;;;;;2.00;2.00;;;;;18.26;49.97;101989.41;6277597;22;45464;-85
2022/07/05 00:26:33;;;;;;;;;1.00;1.00;;;;;18.22;50.54;101990.44;6277168;22;45642;-85
2022/07/05 00:28:58;;;;;;;;;3.00;3.00;;;;;18.19;50.22;101984.38;6277307;22;53132;-85
2022/07/05 00:31:26;;;;;;;;;1.00;1.00;;;;;18.21;50.00;101986.94;6279773;22;45900;-85
2022/07/05 00:33:51;;;;;;;;;1.75;1.75;;;;;18.19;50.25;101983.53;6281367;22;45485;-85
2022/07/05 00:36:17;;;;;;;;;4.00;2.00;;;;;18.13;50.83;101982.00;6276902;22;45310;-86
2022/07/05 00:38:42;;;;;;;;;4.25;2.00;;;;;18.10;50.57;102000.56;6276787;22;50877;-85
2022/07/05 00:41:07;;;;;;;;;3.50;2.00;;;;;18.10;51.90;102008.47;6277690;22;45355;-85
2022/07/05 00:43:33;;;;;;;;;3.25;2.00;;;;;17.97;51.34;101988.81;6277802;22;47662;-85
2022/07/05 00:45:59;;;;;;;;;1.50;1.50;;;;;17.87;51.23;101984.84;6276662;22;46126;-85
2022/07/05 00:48:24;;;;;;;;;2.00;2.00;;;;;17.88;51.25;101990.03;6277274;22;45356;-85
2022/07/05 00:50:50;;;;;;;;;1.00;1.00;;;;;17.89;51.77;101994.38;6304380;22;45429;-85
2022/07/05 00:53:16;;;;;;;;;2.50;2.50;;;;;17.79;52.86;101990.34;6277380;22;45517;-85
2022/07/05 00:55:43;;;;;;;;;1.00;1.00;;;;;17.69;51.70;101991.66;6305151;22;45475;-85
2022/07/05 00:58:09;;;;;;;;;0.50;0.50;;;;;17.63;51.54;101992.75;6277345;22;45268;-85
2022/07/05 01:00:35;;;;;;;;;1.25;1.00;;;;;17.51;53.00;101996.69;6277347;22;45211;-85
2022/07/05 01:03:01;;;;;;;;;1.00;1.00;;;;;17.53;52.47;102009.78;6304827;22;45403;-85
2022/07/05 01:05:27;;;;;;;;;2.00;1.00;;;;;17.34;52.95;101986.78;6250973;22;45956;-85
2022/07/05 01:07:53;;;;;;;;;2.25;2.00;;;;;17.31;52.72;101986.94;6277915;22;45349;-85
2022/07/05 01:10:18;;;;;;;;;2.00;2.00;;;;;17.35;53.00;101993.78;6277784;22;45326;-84
2022/07/05 01:12:44;;;;;;;;;3.00;1.50;;;;;17.35;52.66;102000.84;6277317;22;45313;-85
2022/07/05 01:15:09;;;;;;;;;1.50;1.00;;;;;17.21;52.57;101986.38;6277511;22;45322;-85
2022/07/05 01:17:36;;;;;;;;;1.00;1.00;;;;;17.18;53.85;101983.91;6276808;22;45450;-85
2022/07/05 01:20:06;;;;;;;;;1.00;1.00;;;;;17.27;53.23;101990.56;6277374;22;45301;-85
2022/07/05 01:22:49;;;;;;;;;1.00;1.00;;;;;17.20;52.23;101986.47;6251386;22;45504;-85
2022/07/05 01:25:14;;;;;;;;;1.00;1.00;;;;;17.12;52.75;101980.63;6277008;22;46162;-85
2022/07/05 01:27:40;;;;;;;;;1.50;1.00;;;;;17.07;53.20;101986.06;6277353;22;45316;-84
2022/07/05 01:30:06;;;;;;;;;1.00;1.00;;;;;17.06;53.03;101996.63;6277286;22;45196;-84
2022/07/05 01:32:31;;;;;;;;;1.25;1.25;;;;;16.95;53.18;101986.50;6277230;22;45491;-85
2022/07/05 01:34:57;;;;;;;;;2.75;0.00;;;;;16.94;53.10;101977.75;6303397;22;67107;-84
2022/07/05 01:37:22;;;;;;;;;1.50;1.00;;;;;16.97;53.02;101984.66;6277282;22;47024;-84
2022/07/05 01:39:48;;;;;;;;;2.50;1.00;;;;;16.93;54.40;101980.44;6277739;22;45534;-85
2022/07/05 01:42:13;;;;;;;;;1.25;1.25;;;;;16.96;54.65;101996.13;6277207;22;45711;-85
2022/07/05 01:44:39;;;;;;;;;1.00;1.00;;;;;16.75;54.37;101968.75;6251426;22;48313;-85
2022/07/05 01:47:06;;;;;;;;;2.00;1.75;;;;;16.65;53.81;101976.97;6276885;22;45319;-84
2022/07/05 01:49:35;;;;;;;;;2.50;1.50;;;;;16.65;53.81;101984.00;6304670;22;45305;-85
2022/07/05 01:52:09;;;;;;;;;1.50;1.00;;;;;16.59;54.92;101979.81;6277282;22;45469;-85
2022/07/05 01:54:35;;;;;;;;;3.00;1.00;;;;;16.56;54.88;101985.16;6304292;22;46165;-85
2022/07/05 01:57:01;;;;;;;;;1.00;1.00;;;;;16.53;54.70;101977.41;6277154;22;45333;-85
2022/07/05 01:59:27;;;;;;;;;0.00;0.00;;;;;16.46;55.11;101973.25;6305154;22;45199;-84
2022/07/05 02:01:53;;;;;;;;;1.00;1.00;;;;;16.50;54.75;101990.63;6304616;22;45439;-84
2022/07/05 02:04:18;;;;;;;;;1.00;1.00;;;;;16.44;55.02;101977.72;6276947;22;46168;-84
2022/07/05 02:06:45;;;;;;;;;1.75;1.00;;;;;16.31;56.43;101968.53;6276846;22;45302;-84
2022/07/05 02:09:10;;;;;;;;;1.50;1.00;;;;;16.35;54.93;101984.13;6277890;22;45369;-85
2022/07/05 02:11:36;;;;;;;;;1.00;1.00;;;;;16.37;55.32;101981.47;6276915;22;45342;-85
2022/07/05 02:14:02;;;;;;;;;2.25;1.00;;;;;16.28;55.73;101969.47;6304187;22;47065;-85
2022/07/05 02:16:28;;;;;;;;;3.75;1.25;;;;;16.32;55.47;101978.13;6276877;22;45535;-84
2022/07/05 02:18:54;;;;;;;;;2.00;2.00;;;;;16.30;56.45;101972.06;6276963;22;45271;-85
2022/07/05 02:21:20;;;;;;;;;2.25;1.00;;;;;16.29;55.34;101984.34;6276857;22;45355;-85
2022/07/05 02:23:45;;;;;;;;;3.50;2.00;;;;;16.22;56.43;101974.94;6276742;22;47002;-85
2022/07/05 02:26:11;;;;;;;;;5.25;1.00;;;;;16.25;55.35;101974.81;6304438;22;45227;-85
2022/07/05 02:28:36;;;;;;;;;1.00;1.00;;;;;16.26;55.36;101973.91;6276990;22;45259;-85
2022/07/05 02:31:02;;;;;;;;;2.50;1.50;;;;;16.20;55.90;101966.25;6276803;22;45315;-84
2022/07/05 02:33:27;;;;;;;;;5.00;1.00;;;;;16.18;58.00;101966.28;6304127;22;45257;-84
2022/07/05 02:35:52;;;;;;;;;2.75;1.00;;;;;16.06;56.33;101970.19;6277265;22;45387;-84
2022/07/05 02:38:18;;;;;;;;;1.00;1.00;;;;;16.05;57.69;101973.72;6276924;22;47759;-84
2022/07/05 02:40:43;;;;;;;;;1.00;1.00;;;;;15.97;56.68;101962.63;6304247;22;45463;-85
2022/07/05 02:43:08;;;;;;;;;0.25;0.25;;;;;16.01;56.85;101961.59;6277120;22;46364;-85
2022/07/05 02:45:34;;;;;;;;;3.50;2.25;;;;;15.96;56.49;101968.75;6304445;22;45305;-85
2022/07/05 02:47:59;;;;;;;;;1.00;1.00;;;;;15.96;56.53;101963.50;6276557;22;46319;-84
2022/07/05 02:50:25;;;;;;;;;3.00;1.50;;;;;15.96;57.57;101968.75;6276966;22;45279;-84
2022/07/05 02:52:50;;;;;;;;;3.00;1.00;;;;;15.92;57.79;101967.16;6303510;22;53883;-85
2022/07/05 02:55:15;;;;;;;;;2.00;2.00;;;;;15.81;57.04;101958.75;6276853;22;45418;-84
2022/07/05 02:57:41;;;;;;;;;2.00;1.00;;;;;15.90;57.04;101970.72;6277040;22;45312;-85
2022/07/05 03:00:07;;;;;;;;;3.50;2.00;;;;;15.92;57.23;101969.78;6276527;22;45722;-85
2022/07/05 03:02:32;;;;;;;;;2.50;2.25;;;;;15.90;57.14;101974.22;6301925;22;48383;-85
2022/07/05 03:04:58;;;;;;;;;5.00;2.00;;;;;15.84;56.83;101964.75;6276510;22;49225;-85
2022/07/05 03:07:23;;;;;;;;;2.00;2.00;;;;;15.89;57.48;101969.84;6304932;22;45237;-85
2022/07/05 03:09:48;;;;;;;;;2.00;2.00;;;;;15.86;57.95;101972.56;6285352;22;45222;-85
2022/07/05 03:12:14;;;;;;;;;4.00;2.75;;;;;15.85;58.76;101979.59;6256125;22;48026;-84
2022/07/05 03:14:39;;;;;;;;;6.00;3.00;;;;;15.79;57.65;101971.06;6255732;22;45920;-85
2022/07/05 03:17:04;;;;;;;;;6.00;2.00;;;;;15.77;57.79;101959.75;6305808;22;45648;-85
2022/07/05 03:19:30;;;;;;;;;3.00;3.00;;;;;15.77;58.48;101968.50;6277743;22;45566;-85
2022/07/05 03:21:55;;;;;;;;;3.25;3.25;;;;;15.80;58.82;101978.03;6278200;22;46352;-84
2022/07/05 03:24:20;;;;;;;;;2.75;2.00;;;;;15.61;59.09;101954.94;6305344;22;45290;-84
2022/07/05 03:26:46;;;;;;;;;3.25;2.00;;;;;15.64;59.21;101978.47;6278516;22;45255;-84
2022/07/05 03:29:11;;;;;;;;;5.00;3.00;;;;;15.60;58.74;101968.09;6277925;22;45435;-84
2022/07/05 03:31:36;;;;;;;;;4.75;4.75;;;;;15.62;59.00;101974.16;6277710;22;45865;-84
2022/07/05 03:34:02;;;;;;;;;3.00;3.00;;;;;15.61;58.51;101980.31;6278162;22;45242;-83
2022/07/05 03:36:27;;;;;;;;;3.00;3.00;;;;;15.59;60.84;101980.38;6305263;22;45217;-84
2022/07/05 03:38:53;;;;;;;;;4.00;4.00;;;;;15.46;60.44;101976.38;6278241;22;45289;-84
2022/07/05 03:41:18;;;;;;;;;5.75;4.00;;;;;15.42;60.39;101977.41;6277734;22;55326;-84
2022/07/05 03:43:43;;;;;;;;;6.25;3.00;;;;;15.42;59.26;101980.03;6277558;22;45376;-84
2022/07/05 03:46:09;;;;;;;;;4.00;4.00;;;;;15.52;60.32;101986.69;6278270;22;45308;-84
2022/07/05 03:48:34;;;;;;;;;2.00;2.00;;;;;15.44;59.59;101975.59;6305621;22;45281;-84
2022/07/05 03:50:59;;;;;;;;;3.00;2.00;;;;;15.59;59.57;102001.34;6277913;22;45336;-85
2022/07/05 03:53:25;;;;;;;;;7.00;3.00;;;;;15.46;60.69;101990.38;6278069;22;45310;-84
2022/07/05 03:55:50;;;;;;;;;5.00;4.00;;;;;15.40;61.16;101990.56;6305290;22;45388;-84
2022/07/05 03:58:16;;;;;;;;;4.00;3.50;;;;;15.34;61.97;101992.47;6304773;22;45321;-84
2022/07/05 04:00:41;;;;;;;;;4.75;4.00;;;;;15.26;61.96;101993.56;6277937;22;46028;-84
2022/07/05 04:03:06;;;;;;;;;2.75;2.00;;;;;15.22;62.03;102006.81;6278122;22;45385;-84
2022/07/05 04:05:32;;;;;;;;;4.25;3.50;;;;;15.14;62.08;101999.16;6278297;22;45326;-84
2022/07/05 04:07:57;;;;;;;;;3.00;3.00;;;;;15.09;61.65;101996.66;6277884;22;45325;-84
2022/07/05 04:10:23;;;;;;;;;5.25;3.25;;;;;15.12;62.28;101998.34;6277497;22;46198;-84
2022/07/05 04:12:48;;;;;;;;;2.00;2.00;;;;;15.16;61.32;102002.59;6276955;22;45202;-84
2022/07/05 04:15:14;;;;;;;;;6.75;3.00;;;;;15.21;61.97;102008.59;6277876;22;45345;-84
2022/07/05 04:17:51;;;;;;;;;4.50;3.00;;;;;15.16;61.29;102001.75;6305445;22;45223;-84
2022/07/05 04:20:16;;;;;;;;;3.00;3.00;;;;;15.21;61.95;102010.31;6304795;22;46226;-84
2022/07/05 04:22:42;;;;;;;;;5.00;3.00;;;;;15.19;62.14;102015.66;6277991;22;45279;-84
2022/07/05 04:25:17;;;;;;;;;4.25;3.00;;;;;15.18;62.69;102027.03;6278208;22;45306;-86
2022/07/05 04:27:44;;;;;;;;;5.00;3.75;;;;;15.10;62.96;102031.63;6279650;22;45359;-85
2022/07/05 04:30:10;;;;;;;;;4.00;3.00;;;;;15.01;62.96;102016.16;6277321;22;47135;-85
2022/07/05 04:32:35;;;;;;;;;3.00;3.00;;;;;15.12;62.47;102023.69;6304969;22;45349;-85
2022/07/05 04:35:01;;;;;;;;;4.50;4.00;;;;;15.11;62.88;102030.72;6278096;22;45326;-85
2022/07/05 04:37:27;;;;;;;;;9.00;4.00;;;;;15.10;62.73;102022.00;6277617;22;45428;-85
2022/07/05 04:39:52;;;;;;;;;7.25;5.00;;;;;15.07;63.90;102026.47;6277280;22;45351;-85
2022/07/05 04:42:18;;;;;;;;;8.50;3.25;;;;;15.10;63.65;102035.09;6277464;22;45266;-85
2022/07/05 04:44:43;;;;;;;;;2.50;2.50;;;;;15.09;63.51;102019.41;6277530;22;45321;-85
2022/07/05 04:47:08;;;;;;;;;5.00;4.00;;;;;15.16;63.95;102027.97;6277552;22;45226;-85
2022/07/05 04:49:34;;;;;;;;;3.25;3.25;;;;;15.12;64.38;102029.81;6277742;22;46204;-85
2022/07/05 04:51:59;;;;;;;;;6.00;4.00;;;;;15.05;64.02;102023.88;6277409;22;45213;-85
2022/07/05 04:54:24;;;;;;;;;4.25;3.00;;;;;15.11;64.49;102043.81;6277367;22;45244;-85
2022/07/05 04:56:50;;;;;;;;;7.50;4.50;;;;;14.94;64.69;102019.84;6304745;22;45395;-85
2022/07/05 04:59:15;;;;;;;;;8.00;5.00;;;;;15.04;64.96;102037.03;6304181;22;56864;-85
2022/07/05 05:01:40;;;;;;;;;6.00;4.25;;;;;15.06;64.09;102037.84;6277323;22;45312;-84
2022/07/05 05:04:06;;;;;;;;;9.00;4.25;;;;;15.17;64.71;102043.66;6277648;22;45257;-85
2022/07/05 05:06:31;;;;;;;;;5.00;4.00;;;;;15.17;64.28;102045.41;6305037;22;45183;-85
2022/07/05 05:08:57;;;;;;;;;8.25;5.00;;;;;15.22;65.00;102035.66;6276986;22;46952;-84
2022/07/05 05:11:22;;;;;;;;;8.00;4.75;;;;;15.37;64.72;102047.50;6277143;22;45244;-84
2022/07/05 05:13:47;;;;;;;;;6.50;4.25;;;;;15.37;64.55;102037.00;6277539;22;45270;-84
2022/07/05 05:16:13;;;;;;;;;4.00;4.00;;;;;15.45;64.37;102045.50;6277930;22;45436;-84
2022/07/05 05:18:40;;;;;;;;;8.25;3.50;;;;;15.47;63.97;102041.94;6277255;22;46412;-85
2022/07/05 05:21:06;;;;;;;;;6.50;4.00;;;;;15.49;64.83;102047.16;6277668;22;45346;-85
2022/07/05 05:23:31;;;;;;;;;5.00;4.25;;;;;15.43;64.60;102053.44;6277567;22;45764;-86
2022/07/05 05:25:56;;;;;;;;;4.50;4.25;;;;;15.36;64.70;102033.53;6277477;22;45342;-84
2022/07/05 05:28:22;;;;;;;;;9.00;3.00;;;;;15.46;63.54;102047.25;6250798;22;53223;-85
2022/07/05 05:30:47;;;;;;;;;5.00;3.00;;;;;15.63;63.51;102046.75;6277060;22;45303;-85
2022/07/05 05:33:13;;;;;;;;;5.25;4.00;;;;;15.66;64.14;102039.66;6277039;22;45460;-85
2022/07/05 05:35:38;;;;;;;;;8.00;5.00;;;;;15.74;63.01;102043.84;6277142;22;45322;-85
2022/07/05 05:38:04;;;;;;;;;6.00;5.00;;;;;15.76;63.61;102049.91;6277016;22;45255;-85
2022/07/05 05:40:29;;;;;;;;;4.75;4.75;;;;;15.83;63.14;102052.28;6277019;22;49461;-85
2022/07/05 05:42:56;;;;;;;;;7.25;5.00;;;;;15.93;62.49;102054.66;6278010;22;45471;-85
2022/07/05 05:45:25;;;;;;;;;7.00;6.00;;;;;16.06;62.36;102062.13;6312576;22;45186;-85
2022/07/05 05:47:55;;;;;;;;;6.00;5.50;;;;;16.05;61.83;102049.03;6255289;22;46969;-85
2022/07/05 05:50:21;;;;;;;;;9.00;6.00;;;;;16.18;62.93;102075.78;6277653;22;45250;-85
2022/07/05 05:52:46;;;;;;;;;13.50;5.25;;;;;16.19;61.60;102080.97;6304843;22;45210;-85
2022/07/05 05:55:12;;;;;;;;;6.75;5.00;;;;;16.20;62.00;102082.69;6304194;22;45402;-85
2022/07/05 05:57:37;;;;;;;;;5.50;5.50;;;;;16.11;62.59;102058.47;6277396;22;45340;-85
2022/07/05 06:00:04;;;;;;;;;6.75;6.75;;;;;16.12;63.11;102065.44;6305026;22;45285;-85
2022/07/05 06:02:30;;;;;;;;;9.25;5.50;;;;;16.06;62.84;102066.50;6277194;22;45373;-85
2022/07/05 06:04:55;;;;;;;;;7.00;7.00;;;;;16.11;62.39;102069.00;6277071;22;45362;-85
2022/07/05 06:07:20;;;;;;;;;9.00;6.50;;;;;16.14;62.13;102061.88;6276712;22;47853;-85
2022/07/05 06:09:46;;;;;;;;;8.75;6.00;;;;;16.23;62.73;102065.97;6304022;22;45341;-85
2022/07/05 06:12:11;;;;;;;;;8.75;7.00;;;;;16.20;61.73;102059.06;6277193;22;45306;-85
2022/07/05 06:14:37;;;;;;;;;10.50;5.25;;;;;16.24;62.71;102058.03;6276929;22;45431;-85
2022/07/05 06:17:02;;;;;;;;;8.00;5.75;;;;;16.23;62.46;102066.84;6276761;22;46858;-85
2022/07/05 06:19:28;;;;;;;;;11.75;7.00;;;;;16.36;62.48;102080.47;6277045;22;45283;-85
2022/07/05 06:21:53;;;;;;;;;6.00;6.00;;;;;16.29;62.85;102067.53;6276624;22;49133;-85
2022/07/05 06:24:18;;;;;;;;;6.50;6.00;;;;;16.37;62.74;102081.31;6304047;22;45230;-85
2022/07/05 06:26:44;;;;;;;;;7.75;6.00;;;;;16.30;63.27;102071.91;6276643;22;47284;-82
2022/07/05 06:29:09;;;;;;;;;9.75;5.00;;;;;16.31;62.62;102079.72;6303539;22;67249;-81
2022/07/05 06:31:34;;;;;;;;;7.75;6.00;;;;;16.30;63.30;102090.28;6303779;22;61474;-83
2022/07/05 06:34:00;;;;;;;;;7.75;6.00;;;;;16.25;63.71;102096.56;6276651;22;52884;-84
2022/07/05 06:36:25;;;;;;;;;9.00;6.75;;;;;16.25;62.97;102086.03;6276635;22;46765;-84
2022/07/05 06:38:50;;;;;;;;;8.50;6.00;;;;;16.26;64.55;102081.63;6303429;22;56179;-84
2022/07/05 06:41:15;;;;;;;;;9.25;8.00;;;;;16.33;63.50;102079.69;6303709;22;61489;-84
2022/07/05 06:43:41;;;;;;;;;7.00;6.25;;;;;16.41;62.11;102073.25;6304142;22;59185;-84
2022/07/05 06:46:06;;;;;;;;;11.25;7.00;;;;;16.47;63.36;102068.72;6304796;22;52978;-85
2022/07/05 06:48:32;;;;;;;;;7.00;5.75;;;;;16.51;63.43;102072.97;6305301;22;45304;-84
2022/07/05 06:50:57;;;;;;;;;10.00;8.00;;;;;16.50;63.37;102081.78;6305611;22;45268;-84
2022/07/05 06:53:22;;;;;;;;;10.50;6.75;;;;;16.54;63.41;102088.66;6304705;22;53703;-84
2022/07/05 06:55:48;;;;;;;;;9.75;9.25;;;;;16.63;62.24;102091.81;6277039;22;68227;-83
2022/07/05 06:58:13;;;;;;;;;6.75;6.75;;;;;16.75;62.39;102095.84;6278172;22;45360;-85
2022/07/05 07:00:40;;;;;;;;;10.75;7.00;;;;;16.82;62.52;102093.84;6278604;22;45667;-86
2022/07/05 07:03:05;;;;;;;;;7.00;6.50;;;;;16.85;62.66;102083.25;6303984;22;45376;-86
2022/07/05 07:05:30;;;;;;;;;12.25;6.00;;;;;16.94;62.50;102082.97;6277832;22;46839;-83
2022/07/05 07:10:40;;;;;;;;;11.25;7.25;;;;;17.09;61.47;102092.09;6282755;22;45300;-83
2022/07/05 07:13:05;;;;;;;;;10.50;5.25;;;;;17.13;61.56;102083.16;6305448;22;45358;-85
2022/07/05 07:15:31;;;;;;;;;10.75;8.50;;;;;17.29;61.64;102093.16;6301223;22;63149;-85
2022/07/05 07:17:57;;;;;;;;;10.25;7.50;;;;;17.38;61.75;102098.06;6276364;22;45611;-85
2022/07/05 07:20:22;;;;;;;;;8.25;6.50;;;;;17.33;60.99;102092.16;6278093;22;45301;-86
2022/07/05 07:22:48;;;;;;;;;9.25;7.00;;;;;17.39;61.14;102089.28;6277572;22;45437;-86
2022/07/05 07:25:23;;;;;;;;;11.00;7.25;;;;;17.37;61.36;102083.22;6277712;22;45376;-88
2022/07/05 07:27:53;;;;;;;;;12.50;8.25;;;;;17.47;60.73;102103.00;6278504;22;45293;-87
2022/07/05 07:30:23;;;;;;;;;11.75;7.50;;;;;17.57;60.84;102096.50;6277487;22;45211;-85
2022/07/05 07:32:49;;;;;;;;;11.00;9.00;;;;;17.62;60.39;102096.31;6277283;22;45490;-84
2022/07/05 07:35:24;;;;;;;;;7.25;7.25;;;;;17.66;60.89;102111.09;6305117;22;55054;-87
2022/07/05 07:37:49;;;;;;;;;14.50;7.00;;;;;17.60;60.63;102095.53;6304436;22;45602;-84
2022/07/05 07:40:15;;;;;;;;;8.00;6.50;;;;;17.69;60.63;102104.88;6276919;22;51916;-85
2022/07/05 07:42:40;;;;;;;;;7.25;7.00;;;;;17.75;60.33;102097.59;6304707;22;45389;-83
2022/07/05 07:45:06;;;;;;;;;8.00;6.25;;;;;17.89;60.22;102106.81;6273817;22;45298;-82
2022/07/05 07:47:35;;;;;;;;;8.00;8.00;;;;;17.98;60.02;102101.19;6304674;22;45432;-83
2022/07/05 07:50:01;;;;;;;;;9.00;7.00;;;;;18.02;59.86;102109.81;6304970;22;45367;-82
2022/07/05 07:52:27;;;;;;;;;7.00;7.00;;;;;18.07;59.88;102098.19;6304122;22;45250;-83
2022/07/05 07:54:52;;;;;;;;;7.00;7.00;;;;;18.18;59.75;102110.91;6276792;22;45422;-83
2022/07/05 07:57:18;;;;;;;;;5.75;5.00;;;;;18.30;59.38;102114.88;6276936;22;45302;-83
2022/07/05 07:59:44;;;;;;;;;5.00;5.00;;;;;18.41;58.37;102110.03;6275901;22;45394;-83
2022/07/05 08:02:10;;;;;;;;;7.00;7.00;;;;;18.57;58.23;102108.50;6303753;22;45340;-83
2022/07/05 08:04:35;;;;;;;;;10.25;8.00;;;;;18.65;57.92;102116.09;6277008;22;45951;-83
2022/07/05 08:07:03;;;;;;;;;7.75;6.75;;;;;18.66;58.31;102112.50;6304048;22;45255;-83
2022/07/05 08:09:28;;;;;;;;;8.25;7.00;;;;;18.65;57.70;102105.53;6304498;22;45305;-82
2022/07/05 08:11:54;;;;;;;;;9.50;7.00;;;;;18.76;57.91;102113.88;6304611;22;45415;-83
2022/07/05 08:14:19;;;;;;;;;7.25;7.00;;;;;18.75;57.46;102111.28;6304529;22;45231;-84
2022/07/05 08:16:47;;;;;;;;;8.75;6.00;;;;;18.79;57.49;102104.94;6274205;22;45445;-84
2022/07/05 08:21:57;;;;;;;;;12.00;6.00;;;;;18.92;57.12;102097.41;6308656;22;45388;-84
2022/07/05 08:24:22;;;;;;;;;6.00;5.50;;;;;19.01;56.97;102098.81;6303902;22;60649;-84
2022/07/05 08:26:47;;;;;;;;;8.00;6.50;;;;;19.06;56.05;102095.06;6304460;22;45417;-84
2022/07/05 08:29:14;;;;;;;;;10.75;6.75;;;;;19.22;56.59;102102.28;6303833;22;64382;-84
2022/07/05 08:31:43;;;;;;;;;6.75;6.75;;;;;19.29;56.34;102094.03;6276985;22;45333;-84
2022/07/05 08:34:09;;;;;;;;;7.00;7.00;;;;;19.41;55.79;102103.22;6275839;22;46072;-84
2022/07/05 08:36:35;;;;;;;;;5.00;5.00;;;;;19.46;55.22;102090.63;6276622;22;45742;-84
2022/07/05 08:39:01;;;;;;;;;7.75;7.00;;;;;19.47;56.23;102088.88;6276090;22;45461;-83
2022/07/05 08:41:26;;;;;;;;;6.00;6.00;;;;;19.50;55.48;102084.31;6304121;22;45431;-84
2022/07/05 08:43:52;;;;;;;;;9.00;7.75;;;;;19.59;54.94;102088.31;6276271;22;72254;-83
2022/07/05 08:46:18;;;;;;;;;8.00;6.25;;;;;19.70;54.26;102093.09;6276371;22;45308;-84
2022/07/05 08:48:46;;;;;;;;;6.25;6.00;;;;;19.75;54.09;102091.16;6304034;22;45301;-83
2022/07/05 08:51:14;;;;;;;;;7.00;7.00;;;;;19.84;54.37;102092.53;6304513;22;45302;-84
2022/07/05 08:53:41;;;;;;;;;9.50;6.75;;;;;19.94;54.02;102085.00;6276858;22;46249;-84
2022/07/05 08:56:11;;;;;;;;;5.75;5.00;;;;;19.99;53.32;102085.66;6276520;22;45749;-84
2022/07/05 08:58:37;;;;;;;;;9.50;6.25;;;;;20.06;53.21;102097.66;6277585;22;45328;-83
2022/07/05 09:01:04;;;;;;;;;6.50;5.00;;;;;20.11;52.87;102095.63;6250490;22;45330;-84
2022/07/05 09:03:38;;;;;;;;;6.00;6.00;;;;;20.10;52.93;102083.34;6301910;22;46129;-84
2022/07/05 09:06:05;;;;;;;;;6.50;6.00;;;;;20.17;52.69;102089.19;6275709;22;45579;-83
2022/07/05 09:08:34;;;;;;;;;5.50;5.00;;;;;20.15;52.11;102084.00;6277160;22;45370;-84
2022/07/05 09:11:02;;;;;;;;;6.50;4.50;;;;;20.27;51.90;102086.03;6277046;22;45305;-84
2022/07/05 09:13:33;;;;;;;;;7.25;5.25;;;;;20.41;51.56;102085.38;6277135;22;45422;-85
2022/07/05 09:15:59;;;;;;;;;4.50;4.50;;;;;20.45;50.88;102078.16;6276594;22;45632;-84
2022/07/05 09:18:44;;;;;;;;;5.75;4.00;;;;;20.49;51.28;102066.47;6275699;22;45388;-84
2022/07/05 09:21:20;;;;;;;;;8.00;6.50;;;;;20.68;51.10;102084.97;6276283;22;45328;-84
2022/07/05 09:23:59;;;;;;;;;7.50;6.25;;;;;20.70;50.37;102085.75;6276470;22;47096;-85
2022/07/05 09:26:38;;;;;;;;;6.00;6.00;;;;;20.76;50.12;102089.88;6276895;22;45676;-85
2022/07/05 09:29:15;;;;;;;;;3.25;3.25;;;;;20.83;49.13;102086.81;6303711;22;45319;-84
2022/07/05 09:31:42;;;;;;;;;3.50;3.25;;;;;20.87;48.83;102090.16;6277081;22;45449;-84
2022/07/05 09:34:10;;;;;;;;;4.50;3.25;;;;;20.99;48.03;102083.41;6303730;22;46351;-84
2022/07/05 09:36:54;;;;;;;;;3.00;3.00;;;;;21.08;48.24;102086.44;6303327;22;45356;-83
2022/07/05 09:39:34;;;;;;;;;5.00;3.50;;;;;21.18;47.67;102096.53;6276363;22;45315;-84
2022/07/05 09:42:20;;;;;;;;;4.75;4.75;;;;;21.18;47.53;102091.25;6304393;22;45425;-84
2022/07/05 09:44:48;;;;;;;;;3.50;3.50;;;;;21.18;47.86;102083.31;6304012;22;46180;-85
2022/07/05 09:47:15;;;;;;;;;4.00;4.00;;;;;21.29;47.99;102082.75;6275754;22;46084;-83
2022/07/05 09:49:46;;;;;;;;;5.25;5.25;;;;;21.35;47.19;102096.50;6276574;22;45367;-85
2022/07/05 09:52:34;;;;;;;;;7.00;5.75;;;;;21.48;47.61;102088.78;6276316;22;45597;-82
2022/07/05 09:55:02;;;;;;;;;5.00;5.00;;;;;21.61;46.96;102094.28;6304564;22;45481;-84
2022/07/05 09:57:28;;;;;;;;;5.00;4.25;;;;;21.61;46.93;102078.41;6304214;22;45435;-85
2022/07/05 10:00:03;;;;;;;;;5.00;4.75;;;;;21.74;46.91;102076.78;6276743;22;45267;-83
2022/07/05 10:02:38;;;;;;;;;5.00;5.00;;;;;21.84;46.42;102075.34;6275288;22;45529;-82
2022/07/05 10:05:17;;;;;;;;;7.75;5.50;;;;;21.95;46.72;102085.38;6300103;22;45386;-85
2022/07/05 10:07:50;;;;;;;;;7.50;6.25;;;;;22.02;45.40;102083.22;6249687;22;45874;-86
2022/07/05 10:10:18;;;;;;;;;5.50;5.00;;;;;22.07;45.01;102078.50;6276003;22;45291;-85
2022/07/05 10:12:45;;;;;;;;;7.25;5.00;;;;;22.17;45.59;102076.19;6276644;22;45463;-87
2022/07/05 10:15:13;;;;;;;;;4.50;4.50;;;;;22.29;45.33;102082.59;6303027;22;46538;-88
2022/07/05 10:17:45;;;;;;;;;3.75;3.75;;;;;22.48;44.71;102075.31;6301157;22;45404;-86
2022/07/05 10:20:22;;;;;;;;;4.00;3.25;;;;;22.65;44.61;102073.47;6300785;22;45437;-90
2022/07/05 10:22:47;;;;;;;;;10.00;5.75;;;;;22.60;42.10;102071.06;6275470;22;45586;-85
2022/07/05 10:25:13;;;;;;;;;5.00;5.00;;;;;22.61;42.64;102075.44;6274630;22;45895;-86
2022/07/05 10:27:39;;;;;;;;;5.50;4.50;;;;;22.69;42.87;102089.13;6248688;22;45266;-84
2022/07/05 10:30:06;;;;;;;;;7.25;5.00;;;;;22.68;42.82;102083.88;6274318;22;45548;-85
2022/07/05 10:32:33;;;;;;;;;7.00;4.75;;;;;22.75;44.34;102077.28;6274831;22;45354;-88
2022/07/05 10:34:59;;;;;;;;;4.25;3.75;;;;;22.94;44.49;102087.69;6275850;22;45954;-87
2022/07/05 10:37:29;;;;;;;;;5.00;4.50;;;;;23.04;43.18;102072.91;6277193;22;45756;-90
2022/07/05 10:39:56;;;;;;;;;3.25;3.25;;;;;23.16;42.84;102093.44;6250764;22;45298;-87
2022/07/05 10:42:23;;;;;;;;;4.00;4.00;;;;;23.16;42.89;102066.00;6275409;22;45655;-86
2022/07/05 10:44:49;;;;;;;;;4.50;4.50;;;;;23.21;41.99;102063.91;6274687;22;45373;-86
2022/07/05 10:47:14;;;;;;;;;6.00;4.00;;;;;23.31;42.25;102074.81;6274944;22;45444;-87
2022/07/05 10:49:40;;;;;;;;;3.50;3.50;;;;;23.39;40.40;102072.56;6274750;22;45345;-83
2022/07/05 10:52:34;;;;;;;;;;;;;;;;;;;;;
2022/07/05 10:55:21;;;;;;;;;5.75;3.75;;;;;23.44;41.29;102064.28;6276050;22;74086;-87
2022/07/05 10:58:19;;;;;;;;;4.50;3.50;;;;;23.49;40.64;102063.06;6300873;22;45765;-88
2022/07/05 11:00:53;;;;;;;;;7.75;4.50;;;;;23.65;40.69;102068.25;6274486;22;45376;-92
2022/07/05 11:03:34;;;;;;;;;3.75;3.75;;;;;23.86;40.33;102066.06;6279033;22;45428;-87
2022/07/05 11:06:10;;;;;;;;;4.00;2.75;;;;;24.03;40.19;102066.78;6274596;22;46953;-86
2022/07/05 11:08:59;;;;;;;;;6.50;4.25;;;;;24.19;40.14;102070.16;6302534;22;45356;-86
2022/07/05 11:11:44;;;;;;;;;2.50;2.50;;;;;24.37;40.07;102068.09;6275130;22;45360;-88
2022/07/05 11:14:21;;;;;;;;;3.00;3.00;;;;;24.67;39.46;102078.53;6274672;22;45293;-85
2022/07/05 11:16:48;;;;;;;;;4.00;3.50;;;;;24.97;38.76;102061.41;6274017;22;47040;-83
2022/07/05 11:19:20;;;;;;;;;3.00;3.00;;;;;25.34;38.74;102058.88;6274383;22;45651;-84
2022/07/05 11:22:05;;;;;;;;;4.00;2.75;;;;;25.69;37.04;102061.66;6300952;22;45288;-86
2022/07/05 11:24:33;;;;;;;;;4.00;2.75;;;;;25.89;37.72;102062.88;6273962;22;45307;-85
2022/07/05 11:27:00;;;;;;;;;4.00;3.00;;;;;26.06;35.94;102067.00;6273932;22;45468;-85
2022/07/05 11:29:42;;;;;;;;;2.00;2.00;;;;;26.56;35.73;102057.97;6274014;22;45801;-86
2022/07/05 11:32:21;;;;;;;;;5.25;3.50;;;;;27.08;35.77;102061.16;6276276;22;45462;-87
2022/07/05 11:34:52;;;;;;;;;4.75;3.25;;;;;27.51;34.77;102068.50;6276312;22;45481;-86
2022/07/05 11:37:23;;;;;;;;;2.00;2.00;;;;;27.81;34.63;102062.47;6275784;22;47010;-86